Time;durP1;ratioP1;P1;durP2;ratioP2;P2;SDS_P1;SDS_P2;PMS_P1;PMS_P2;Temp;Humidity;BMP_temperature;BMP_pressure;BME280_temperature;BME280_humidity;BME280_pressure;Samples;Min_cycle;Max_cycle;Signal;HPM_P1;HPM_P2
2023/08/19 00:00:23;;;;;;;6.00;1.90;;;25.30;99.90;;;;;;7393923;19;20131;-87
2023/08/19 00:02:49;;;;;;;3.53;1.70;;;25.30;99.90;;;;;;7394655;19;20194;-88
2023/08/19 00:05:15;;;;;;;4.60;1.63;;;25.20;99.90;;;;;;7389377;19;20206;-87
2023/08/19 00:07:42;;;;;;;1.48;1.35;;;25.20;99.90;;;;;;7391786;19;20130;-88
2023/08/19 00:10:08;;;;;;;2.72;1.58;;;25.20;99.90;;;;;;7389702;19;20154;-83
2023/08/19 00:12:33;;;;;;;5.30;2.00;;;25.30;99.90;;;;;;7394846;19;20147;-87
2023/08/19 00:14:59;;;;;;;3.03;1.52;;;25.20;99.90;;;;;;7392607;19;20138;-87
2023/08/19 00:17:25;;;;;;;2.85;1.80;;;25.20;99.90;;;;;;7392862;19;20139;-87
2023/08/19 00:19:51;;;;;;;2.95;1.52;;;25.30;99.90;;;;;;7392052;19;20157;-86
2023/08/19 00:22:20;;;;;;;2.05;1.40;;;25.20;99.90;;;;;;7392359;19;20131;-86
2023/08/19 00:24:46;;;;;;;2.92;1.90;;;25.20;99.90;;;;;;7393785;19;20138;-83
2023/08/19 00:27:13;;;;;;;3.22;1.63;;;25.20;99.90;;;;;;7392991;19;20149;-86
2023/08/19 00:29:39;;;;;;;4.95;1.75;;;25.10;99.90;;;;;;7390992;19;20583;-86
2023/08/19 00:32:05;;;;;;;3.60;1.70;;;25.20;99.90;;;;;;7392237;19;20229;-86
2023/08/19 00:34:31;;;;;;;2.20;1.60;;;25.10;99.90;;;;;;7392136;19;20776;-87
2023/08/19 00:36:56;;;;;;;2.63;1.80;;;25.10;99.90;;;;;;7389781;19;20143;-87
2023/08/19 00:39:22;;;;;;;3.83;1.95;;;25.10;99.90;;;;;;7393266;19;20196;-85
2023/08/19 00:41:48;;;;;;;3.10;1.73;;;25.10;99.90;;;;;;7391035;19;20147;-81
2023/08/19 00:44:14;;;;;;;4.93;2.58;;;25.10;99.90;;;;;;7394262;19;20135;-84
2023/08/19 00:46:41;;;;;;;5.57;2.85;;;25.10;99.90;;;;;;7392047;19;21608;-87
2023/08/19 00:49:07;;;;;;;2.78;1.85;;;25.00;99.90;;;;;;7390707;19;20135;-84
2023/08/19 00:51:34;;;;;;;3.13;1.65;;;24.90;99.90;;;;;;7392731;19;20166;-86
2023/08/19 00:54:00;;;;;;;6.22;1.92;;;24.70;99.90;;;;;;7391460;19;20134;-86
2023/08/19 00:56:26;;;;;;;2.60;2.15;;;24.40;99.90;;;;;;7391724;19;20126;-85
2023/08/19 00:58:55;;;;;;;2.92;2.17;;;24.20;99.90;;;;;;7390293;19;20133;-84
2023/08/19 01:01:21;;;;;;;4.57;2.15;;;24.20;99.90;;;;;;7393567;19;20151;-86
2023/08/19 01:03:47;;;;;;;6.07;2.60;;;24.20;99.90;;;;;;7388857;19;20601;-84
2023/08/19 01:06:27;;;;;;;3.75;2.10;;;24.10;99.90;;;;;;7393013;19;20226;-84
2023/08/19 01:08:59;;;;;;;3.92;2.22;;;24.10;99.90;;;;;;7391663;19;20139;-85
2023/08/19 01:12:09;;;;;;;3.72;2.28;;;24.20;99.90;;;;;;7390593;19;20222;-85
2023/08/19 01:14:49;;;;;;;2.60;2.00;;;24.30;99.90;;;;;;7392973;19;20135;-85
2023/08/19 01:17:20;;;;;;;2.97;1.92;;;24.20;99.90;;;;;;7391572;19;20174;-83
2023/08/19 01:19:47;;;;;;;3.80;2.38;;;24.30;99.90;;;;;;7391271;19;20139;-85
2023/08/19 01:22:21;;;;;;;4.00;2.28;;;24.30;99.90;;;;;;7391229;19;20147;-81
2023/08/19 01:24:48;;;;;;;2.65;1.98;;;24.00;99.90;;;;;;7389808;19;20202;-82
2023/08/19 01:27:25;;;;;;;3.42;1.90;;;23.80;99.90;;;;;;7390491;19;20556;-81
2023/08/19 01:29:51;;;;;;;3.50;1.88;;;23.60;99.90;;;;;;7388457;19;20595;-84
2023/08/19 01:32:18;;;;;;;3.80;1.83;;;23.40;99.90;;;;;;7391074;19;20217;-82
2023/08/19 01:34:46;;;;;;;3.13;1.80;;;23.60;99.90;;;;;;7383415;19;20452;-85
2023/08/19 01:37:20;;;;;;;2.53;1.75;;;23.90;99.90;;;;;;7391331;19;20170;-87
2023/08/19 01:39:47;;;;;;;3.28;1.77;;;24.20;99.90;;;;;;7388833;19;20135;-84
2023/08/19 01:42:14;;;;;;;3.15;1.85;;;24.40;99.90;;;;;;7392449;19;20145;-80
2023/08/19 01:44:40;;;;;;;3.60;2.03;;;24.40;99.90;;;;;;7390443;19;20748;-86
2023/08/19 01:47:18;;;;;;;2.63;1.75;;;24.40;99.90;;;;;;7392104;19;20146;-88
2023/08/19 01:49:45;;;;;;;3.33;1.70;;;24.50;99.90;;;;;;7387178;19;20582;-85
2023/08/19 01:52:12;;;;;;;2.22;1.70;;;24.50;99.90;;;;;;7390396;19;20135;-82
2023/08/19 01:54:38;;;;;;;3.45;2.00;;;24.10;99.90;;;;;;7391511;19;20142;-87
2023/08/19 01:57:06;;;;;;;2.53;1.70;;;24.00;99.90;;;;;;7387753;19;20156;-86
2023/08/19 01:59:33;;;;;;;3.17;1.63;;;24.00;99.90;;;;;;7390168;19;20135;-88
2023/08/19 02:01:59;;;;;;;4.53;1.95;;;24.10;99.90;;;;;;7391137;19;20145;-86
2023/08/19 02:04:25;;;;;;;4.20;1.85;;;24.10;99.90;;;;;;7389335;19;20155;-84
2023/08/19 02:06:51;;;;;;;4.45;2.08;;;24.20;99.90;;;;;;7391598;19;20142;-85
2023/08/19 02:09:16;;;;;;;2.50;1.80;;;24.20;99.90;;;;;;7388417;19;20161;-86
2023/08/19 02:11:42;;;;;;;3.42;1.98;;;24.30;99.90;;;;;;7388789;19;20135;-88
2023/08/19 02:14:09;;;;;;;3.10;1.70;;;24.30;99.90;;;;;;7389549;19;20443;-84
2023/08/19 02:16:35;;;;;;;2.15;1.52;;;24.20;99.90;;;;;;7388238;19;20167;-86
2023/08/19 02:19:01;;;;;;;1.80;1.70;;;24.10;99.90;;;;;;7390741;19;20482;-86
2023/08/19 02:21:27;;;;;;;2.72;1.92;;;23.90;99.90;;;;;;7388837;19;20126;-86
2023/08/19 02:23:55;;;;;;;2.75;1.88;;;23.70;99.90;;;;;;7391108;19;20221;-86
2023/08/19 02:26:21;;;;;;;2.60;1.85;;;23.70;99.90;;;;;;7390402;19;20440;-86
2023/08/19 02:28:47;;;;;;;2.05;1.83;;;24.00;99.90;;;;;;7387566;19;20156;-84
2023/08/19 02:31:13;;;;;;;2.60;1.60;;;24.10;99.90;;;;;;7389624;19;20154;-81
2023/08/19 02:33:40;;;;;;;2.95;1.83;;;24.10;99.90;;;;;;7391476;19;20582;-85
2023/08/19 02:36:06;;;;;;;4.72;1.63;;;24.10;99.90;;;;;;7389448;19;20142;-85
2023/08/19 02:38:32;;;;;;;2.50;1.92;;;24.00;99.90;;;;;;7383902;19;20251;-85
2023/08/19 02:40:58;;;;;;;2.28;2.08;;;23.90;99.90;;;;;;7391643;19;20166;-85
2023/08/19 02:43:24;;;;;;;3.60;1.95;;;23.50;99.90;;;;;;7390467;19;20133;-87
2023/08/19 02:45:49;;;;;;;2.50;2.10;;;23.60;99.90;;;;;;7387431;19;20239;-82
2023/08/19 02:48:15;;;;;;;3.28;1.98;;;23.50;99.90;;;;;;7390449;19;20326;-83
2023/08/19 02:50:42;;;;;;;2.65;1.83;;;23.20;99.90;;;;;;7386884;19;20156;-86
2023/08/19 02:53:08;;;;;;;5.22;2.08;;;23.10;99.90;;;;;;7390901;19;20703;-85
2023/08/19 02:55:33;;;;;;;2.80;2.15;;;23.40;99.90;;;;;;7389224;19;20139;-85
2023/08/19 02:58:02;;;;;;;5.63;2.38;;;23.40;99.90;;;;;;7384810;19;20182;-87
2023/08/19 03:00:28;;;;;;;5.65;2.25;;;23.50;99.90;;;;;;7389375;19;20162;-86
2023/08/19 03:02:53;;;;;;;5.65;2.10;;;23.70;99.90;;;;;;7390268;19;20241;-84
2023/08/19 03:05:20;;;;;;;3.30;2.17;;;23.80;99.90;;;;;;7385243;19;20170;-87
2023/08/19 03:07:45;;;;;;;3.75;2.50;;;23.70;99.90;;;;;;7387767;19;20765;-85
2023/08/19 03:10:11;;;;;;;9.30;3.63;;;23.80;99.90;;;;;;7385084;19;20142;-88
2023/08/19 03:12:37;;;;;;;9.55;3.08;;;23.50;99.90;;;;;;7389826;19;20126;-83
2023/08/19 03:15:07;;;;;;;14.20;3.47;;;23.30;99.90;;;;;;7386109;19;20150;-84
2023/08/19 03:17:33;;;;;;;9.13;3.53;;;23.50;99.90;;;;;;7389445;19;20154;-88
2023/08/19 03:19:58;;;;;;;6.43;2.60;;;23.60;99.90;;;;;;7387617;19;20143;-88
2023/08/19 03:22:24;;;;;;;14.40;3.10;;;23.70;99.90;;;;;;7388663;19;20567;-88
2023/08/19 03:24:50;;;;;;;5.60;2.20;;;23.70;99.90;;;;;;7390849;19;20137;-85
2023/08/19 03:27:15;;;;;;;8.68;2.85;;;23.80;99.90;;;;;;7389990;19;20138;-87
2023/08/19 03:29:41;;;;;;;6.97;3.00;;;23.80;99.90;;;;;;7393210;19;20126;-88
2023/08/19 03:32:07;;;;;;;6.50;2.65;;;23.80;99.90;;;;;;7396832;19;20134;-88
2023/08/19 03:34:32;;;;;;;7.75;3.03;;;23.80;99.90;;;;;;7397262;19;20142;-85
2023/08/19 03:36:58;;;;;;;8.82;2.78;;;23.70;99.90;;;;;;7396113;19;20491;-87
2023/08/19 03:39:24;;;;;;;6.97;2.80;;;23.50;99.90;;;;;;7393418;19;20536;-83
2023/08/19 03:41:49;;;;;;;4.25;2.42;;;23.20;99.90;;;;;;7394331;19;20218;-87
2023/08/19 03:44:15;;;;;;;10.57;3.33;;;23.00;99.90;;;;;;7393497;19;20142;-87
2023/08/19 03:46:42;;;;;;;8.38;3.22;;;23.00;99.90;;;;;;7392200;19;20146;-87
2023/08/19 03:49:07;;;;;;;4.78;2.45;;;23.10;99.90;;;;;;7391289;19;20195;-87
2023/08/19 03:51:33;;;;;;;5.15;2.45;;;22.90;99.90;;;;;;7396388;19;20127;-87
2023/08/19 03:53:59;;;;;;;7.32;2.65;;;22.90;99.90;;;;;;7394902;19;20139;-87
2023/08/19 03:56:24;;;;;;;4.55;2.40;;;23.00;99.90;;;;;;7395594;19;20559;-86
2023/08/19 03:58:50;;;;;;;4.47;2.35;;;22.90;99.90;;;;;;7395380;19;20176;-85
2023/08/19 04:01:16;;;;;;;4.65;1.92;;;22.80;99.90;;;;;;7394969;19;20480;-84
2023/08/19 04:03:41;;;;;;;4.90;2.33;;;22.80;99.90;;;;;;7394663;19;20146;-87
2023/08/19 04:06:07;;;;;;;3.22;2.20;;;23.00;99.90;;;;;;7397017;19;20215;-87
2023/08/19 04:08:33;;;;;;;3.15;1.90;;;23.40;99.90;;;;;;7397660;19;20138;-86
2023/08/19 04:11:08;;;;;;;7.30;2.80;;;23.50;99.90;;;;;;7393569;19;20161;-87
2023/08/19 04:13:34;;;;;;;5.45;2.80;;;23.60;99.90;;;;;;7397316;19;20148;-87
2023/08/19 04:16:05;;;;;;;6.22;2.75;;;23.60;99.90;;;;;;7394327;19;20142;-87
2023/08/19 04:18:31;;;;;;;2.80;2.38;;;23.30;99.90;;;;;;7395690;19;20142;-85
2023/08/19 04:21:01;;;;;;;6.85;1.98;;;23.10;99.90;;;;;;7394052;19;20150;-86
2023/08/19 04:23:26;;;;;;;3.03;2.33;;;23.00;99.90;;;;;;7391862;19;20590;-78
2023/08/19 04:25:55;;;;;;;4.05;2.00;;;23.10;99.90;;;;;;7395986;19;20148;-86
2023/08/19 04:28:21;;;;;;;3.78;2.10;;;23.30;99.90;;;;;;7393932;19;20135;-86
2023/08/19 04:30:47;;;;;;;2.78;1.80;;;23.40;99.90;;;;;;7392176;19;20173;-86
2023/08/19 04:33:14;;;;;;;3.67;1.83;;;23.50;99.90;;;;;;7391880;19;20582;-83
2023/08/19 04:35:40;;;;;;;3.78;2.00;;;23.50;99.90;;;;;;7394593;19;20150;-87
2023/08/19 04:38:06;;;;;;;2.78;2.20;;;23.30;99.90;;;;;;7391354;19;20590;-87
2023/08/19 04:40:31;;;;;;;3.33;1.90;;;23.40;99.90;;;;;;7392144;19;20151;-85
2023/08/19 04:42:57;;;;;;;4.40;2.38;;;23.20;99.90;;;;;;7394093;19;20141;-86
2023/08/19 04:45:24;;;;;;;4.72;2.00;;;23.20;99.90;;;;;;7394499;19;20138;-86
2023/08/19 04:47:50;;;;;;;3.83;1.85;;;22.90;99.90;;;;;;7392649;19;20143;-87
2023/08/19 04:50:16;;;;;;;5.18;2.33;;;23.10;99.90;;;;;;7389334;19;20927;-87
2023/08/19 04:52:42;;;;;;;4.15;2.30;;;22.90;99.90;;;;;;7393234;19;20214;-87
2023/08/19 04:55:08;;;;;;;3.17;2.00;;;23.10;99.90;;;;;;7393044;19;20551;-86
2023/08/19 04:57:34;;;;;;;3.40;2.35;;;23.20;99.90;;;;;;7392597;19;20139;-88
2023/08/19 05:00:00;;;;;;;5.47;2.83;;;23.30;99.90;;;;;;7395090;19;20158;-87
2023/08/19 05:02:25;;;;;;;8.45;3.25;;;23.40;99.90;;;;;;7392796;19;20130;-88
2023/08/19 05:04:51;;;;;;;5.22;3.13;;;23.50;99.90;;;;;;7389183;19;20180;-86
2023/08/19 05:07:17;;;;;;;5.93;3.05;;;23.40;99.90;;;;;;7391690;19;20158;-85
2023/08/19 05:09:43;;;;;;;5.45;2.67;;;23.40;99.90;;;;;;7389337;19;20470;-84
2023/08/19 05:12:08;;;;;;;3.67;2.25;;;23.30;99.90;;;;;;7392066;19;20261;-85
2023/08/19 05:14:34;;;;;;;5.70;2.78;;;23.30;99.90;;;;;;7391571;19;20130;-87
2023/08/19 05:17:00;;;;;;;4.22;2.97;;;23.00;99.90;;;;;;7390143;19;20568;-81
2023/08/19 05:19:26;;;;;;;5.20;2.45;;;23.00;99.90;;;;;;7392685;19;20134;-87
2023/08/19 05:21:52;;;;;;;3.85;2.53;;;22.80;99.90;;;;;;7391825;19;20150;-87
2023/08/19 05:24:18;;;;;;;3.35;2.75;;;22.90;99.90;;;;;;7391797;19;20470;-86
2023/08/19 05:26:44;;;;;;;6.65;2.83;;;23.10;99.90;;;;;;7390326;19;20153;-85
2023/08/19 05:29:15;;;;;;;5.35;3.10;;;23.30;99.90;;;;;;7390372;19;20190;-86
2023/08/19 05:31:42;;;;;;;6.93;3.25;;;23.20;99.90;;;;;;7389623;19;20512;-86
2023/08/19 05:34:08;;;;;;;6.82;2.75;;;22.90;99.90;;;;;;7390587;19;20131;-85
2023/08/19 05:36:34;;;;;;;6.93;2.90;;;23.00;99.90;;;;;;7391860;19;20134;-86
2023/08/19 05:38:59;;;;;;;5.47;2.47;;;23.20;99.90;;;;;;7391380;19;20153;-87
2023/08/19 05:41:26;;;;;;;3.33;2.42;;;23.10;99.90;;;;;;7388598;19;20610;-85
2023/08/19 05:43:52;;;;;;;4.30;2.95;;;23.10;99.90;;;;;;7390727;19;20151;-87
2023/08/19 05:46:17;;;;;;;4.43;1.95;;;23.20;99.90;;;;;;7391531;19;20135;-85
2023/08/19 05:48:43;;;;;;;2.78;1.83;;;23.30;99.90;;;;;;7388812;19;20130;-83
2023/08/19 05:51:09;;;;;;;4.93;2.08;;;23.30;99.90;;;;;;7388597;19;20157;-86
2023/08/19 05:53:34;;;;;;;4.10;2.53;;;23.40;99.90;;;;;;7391114;19;20487;-86
2023/08/19 05:56:01;;;;;;;4.28;2.08;;;23.40;99.90;;;;;;7390532;19;20134;-87
2023/08/19 05:58:26;;;;;;;3.45;2.35;;;23.20;99.90;;;;;;7390321;19;20138;-87
2023/08/19 06:01:00;;;;;;;3.05;1.95;;;23.10;99.90;;;;;;7390441;19;20152;-84
2023/08/19 06:03:26;;;;;;;4.90;2.10;;;23.10;99.90;;;;;;7391843;19;20233;-86
2023/08/19 06:05:52;;;;;;;4.88;2.47;;;23.00;99.90;;;;;;7390915;19;20151;-88
2023/08/19 06:08:18;;;;;;;3.97;2.03;;;23.30;99.90;;;;;;7393058;19;20590;-83
2023/08/19 06:10:44;;;;;;;3.03;1.98;;;23.40;99.90;;;;;;7389813;19;20138;-84
2023/08/19 06:13:13;;;;;;;3.88;2.28;;;23.30;99.90;;;;;;7389753;19;20696;-83
2023/08/19 06:15:40;;;;;;;3.33;2.10;;;23.10;99.90;;;;;;7392752;19;20424;-87
2023/08/19 06:18:05;;;;;;;2.63;2.10;;;23.30;99.90;;;;;;7391330;19;20141;-81
2023/08/19 06:20:31;;;;;;;4.97;2.55;;;23.30;99.90;;;;;;7390901;19;20126;-84
2023/08/19 06:22:57;;;;;;;4.22;2.40;;;23.50;99.90;;;;;;7390188;19;20489;-84
2023/08/19 06:25:23;;;;;;;3.08;2.28;;;23.60;99.90;;;;;;7389244;19;20145;-84
2023/08/19 06:27:49;;;;;;;3.70;2.50;;;23.60;99.90;;;;;;7389550;19;20210;-84
2023/08/19 06:30:15;;;;;;;5.13;2.58;;;23.40;99.90;;;;;;7386772;19;20144;-85
2023/08/19 06:32:41;;;;;;;5.25;2.60;;;23.30;99.90;;;;;;7389788;19;20160;-85
2023/08/19 06:35:07;;;;;;;4.38;3.20;;;23.50;99.90;;;;;;7388890;19;20205;-83
2023/08/19 06:37:40;;;;;;;4.03;2.80;;;23.80;99.90;;;;;;7387886;19;20145;-81
2023/08/19 06:40:11;;;;;;;3.90;2.30;;;23.90;99.90;;;;;;7390228;19;20138;-83
2023/08/19 06:42:38;;;;;;;3.33;2.40;;;24.00;99.90;;;;;;7389895;19;20136;-84
2023/08/19 06:45:06;;;;;;;5.15;2.72;;;24.10;99.90;;;;;;7388614;19;20637;-83
2023/08/19 06:47:37;;;;;;;3.70;2.83;;;24.40;99.90;;;;;;7387171;19;20164;-84
2023/08/19 06:50:03;;;;;;;5.38;2.88;;;24.60;99.90;;;;;;7386546;19;20599;-85
2023/08/19 06:52:29;;;;;;;5.30;2.80;;;24.90;99.90;;;;;;7388816;19;20586;-83
2023/08/19 06:54:55;;;;;;;3.15;2.55;;;25.10;99.90;;;;;;7389649;19;20152;-85
2023/08/19 06:57:26;;;;;;;4.45;2.80;;;25.50;99.90;;;;;;7387523;19;20603;-85
2023/08/19 07:00:00;;;;;;;4.20;2.78;;;25.80;99.90;;;;;;7390014;19;20135;-83
2023/08/19 07:02:27;;;;;;;3.63;2.80;;;26.40;99.90;;;;;;7388450;19;20146;-85
2023/08/19 07:04:59;;;;;;;2.38;2.08;;;27.40;99.90;;;;;;7388449;19;20168;-83
2023/08/19 07:07:25;;;;;;;4.45;2.60;;;28.40;99.90;;;;;;7385817;19;20153;-85
2023/08/19 07:09:52;;;;;;;4.22;2.40;;;28.90;99.90;;;;;;7384570;19;20134;-85
2023/08/19 07:12:18;;;;;;;3.60;2.55;;;29.40;99.90;;;;;;7388654;19;20141;-84
2023/08/19 07:14:46;;;;;;;5.28;2.40;;;29.80;99.90;;;;;;7389190;19;20690;-81
2023/08/19 07:17:14;;;;;;;3.92;2.60;;;29.90;99.90;;;;;;7389000;19;20143;-88
2023/08/19 07:19:40;;;;;;;4.93;2.53;;;30.00;99.90;;;;;;7387594;19;20138;-83
2023/08/19 07:22:07;;;;;;;4.93;2.85;;;30.10;99.90;;;;;;7388671;19;20142;-84
2023/08/19 07:24:33;;;;;;;4.57;2.88;;;30.00;99.90;;;;;;7390977;19;20138;-85
2023/08/19 07:27:02;;;;;;;3.92;2.40;;;30.00;99.90;;;;;;7388588;19;20130;-83
2023/08/19 07:29:28;;;;;;;4.55;2.20;;;30.10;99.90;;;;;;7387927;19;20138;-81
2023/08/19 07:31:55;;;;;;;3.67;2.30;;;30.00;99.90;;;;;;7387140;19;20154;-81
2023/08/19 07:34:20;;;;;;;5.57;2.58;;;30.00;99.90;;;;;;7387561;19;20141;-81
2023/08/19 07:36:46;;;;;;;4.50;3.40;;;30.10;99.90;;;;;;7385391;19;20130;-80
2023/08/19 07:39:14;;;;;;;5.55;3.75;;;30.30;99.90;;;;;;7387549;19;20634;-83
2023/08/19 07:41:40;;;;;;;4.43;2.97;;;30.50;99.90;;;;;;7385339;19;20502;-83
2023/08/19 07:44:06;;;;;;;5.38;3.10;;;30.90;99.90;;;;;;7387571;19;20162;-85
2023/08/19 07:46:32;;;;;;;3.92;2.88;;;31.00;99.90;;;;;;7386932;19;20142;-84
2023/08/19 07:48:59;;;;;;;3.95;2.67;;;30.90;99.90;;;;;;7386701;19;20161;-82
2023/08/19 07:51:24;;;;;;;5.47;3.10;;;30.60;99.90;;;;;;7387830;19;20156;-80
2023/08/19 07:53:50;;;;;;;3.50;2.38;;;30.50;99.90;;;;;;7388201;19;20583;-83
2023/08/19 07:56:19;;;;;;;4.72;2.50;;;30.50;99.90;;;;;;7388144;19;20146;-79
2023/08/19 07:58:45;;;;;;;4.40;2.78;;;30.50;99.90;;;;;;7388992;19;20154;-80
2023/08/19 08:01:13;;;;;;;3.85;2.00;;;30.50;99.90;;;;;;7386428;19;20151;-80
2023/08/19 08:03:39;;;;;;;3.95;2.47;;;30.60;99.90;;;;;;7388354;19;20146;-82
2023/08/19 08:06:05;;;;;;;4.25;3.10;;;30.80;99.90;;;;;;7386177;19;20213;-80
2023/08/19 08:08:31;;;;;;;5.32;2.97;;;30.80;99.90;;;;;;7386530;19;20575;-82
2023/08/19 08:10:57;;;;;;;3.05;2.08;;;30.80;99.90;;;;;;7387098;19;20207;-79
2023/08/19 08:13:23;;;;;;;4.72;2.70;;;30.80;99.90;;;;;;7391562;19;20142;-80
2023/08/19 08:15:48;;;;;;;6.43;2.67;;;31.10;99.90;;;;;;7393470;19;20142;-78
2023/08/19 08:18:14;;;;;;;6.00;2.67;;;31.10;99.90;;;;;;7395505;19;20157;-80
2023/08/19 08:20:40;;;;;;;7.63;2.53;;;31.10;99.90;;;;;;7391100;19;20166;-79
2023/08/19 08:23:06;;;;;;;4.70;2.80;;;31.00;99.90;;;;;;7391607;19;20463;-77
2023/08/19 08:25:32;;;;;;;5.80;2.67;;;31.00;99.90;;;;;;7393393;19;20149;-77
2023/08/19 08:27:57;;;;;;;4.05;2.78;;;31.20;99.90;;;;;;7392629;19;20169;-78
2023/08/19 08:30:23;;;;;;;5.95;2.80;;;31.10;99.90;;;;;;7388401;19;20155;-81
2023/08/19 08:32:50;;;;;;;3.25;2.40;;;31.10;99.90;;;;;;7391264;19;20130;-79
2023/08/19 08:35:16;;;;;;;7.38;2.30;;;31.60;99.90;;;;;;7391204;19;20133;-82
2023/08/19 08:37:41;;;;;;;5.97;3.25;;;31.40;99.90;;;;;;7389711;19;20138;-82
2023/08/19 08:40:08;;;;;;;4.25;2.80;;;31.40;99.90;;;;;;7390621;19;20455;-82
2023/08/19 08:42:34;;;;;;;4.93;2.95;;;31.00;99.90;;;;;;7390379;19;20194;-81
2023/08/19 08:45:00;;;;;;;5.95;2.70;;;30.70;99.90;;;;;;7392241;19;20163;-81
2023/08/19 08:47:27;;;;;;;4.85;2.88;;;30.60;99.90;;;;;;7383730;19;20137;-81
2023/08/19 08:49:54;;;;;;;4.85;2.78;;;30.40;99.90;;;;;;7388903;19;20463;-80
2023/08/19 08:52:20;;;;;;;3.83;2.80;;;30.40;99.90;;;;;;7390677;19;20154;-79
2023/08/19 08:54:53;;;;;;;4.20;2.80;;;30.50;99.90;;;;;;7391123;19;20160;-77
2023/08/19 08:57:20;;;;;;;8.30;2.60;;;30.50;99.90;;;;;;7391948;19;20193;-77
2023/08/19 08:59:46;;;;;;;4.00;2.10;;;30.60;99.90;;;;;;7394530;19;20137;-78
2023/08/19 09:02:12;;;;;;;3.67;2.92;;;30.60;99.90;;;;;;7392321;19;20229;-80
2023/08/19 09:04:44;;;;;;;4.18;2.38;;;30.40;99.90;;;;;;7391959;19;20185;-80
2023/08/19 09:07:16;;;;;;;4.88;2.30;;;30.40;99.90;;;;;;7387935;19;20143;-81
2023/08/19 09:09:43;;;;;;;3.78;2.47;;;30.20;99.90;;;;;;7374240;19;20515;-80
2023/08/19 09:12:12;;;;;;;6.18;2.72;;;30.20;99.90;;;;;;7388278;19;20158;-80
2023/08/19 09:14:43;;;;;;;7.88;3.00;;;30.20;99.90;;;;;;7383342;19;20170;-80
2023/08/19 09:17:14;;;;;;;5.28;3.03;;;30.30;99.90;;;;;;7391338;19;20139;-82
2023/08/19 09:19:40;;;;;;;6.13;3.22;;;30.50;99.90;;;;;;7389546;19;20139;-81
2023/08/19 09:22:19;;;;;;;5.28;3.28;;;30.50;99.90;;;;;;7393183;19;20618;-80
2023/08/19 09:24:48;;;;;;;9.30;3.35;;;30.50;99.90;;;;;;7392944;19;20150;-83
2023/08/19 09:27:24;;;;;;;6.72;3.17;;;30.60;99.90;;;;;;7392616;19;20598;-82
2023/08/19 09:29:50;;;;;;;7.60;3.22;;;30.70;99.90;;;;;;7387749;19;20246;-82
2023/08/19 09:32:16;;;;;;;5.72;2.70;;;30.60;99.90;;;;;;7392594;19;20488;-81
2023/08/19 09:34:42;;;;;;;6.10;2.97;;;30.60;99.90;;;;;;7391509;19;20523;-82
2023/08/19 09:37:08;;;;;;;6.18;2.72;;;30.60;99.90;;;;;;7393225;19;20154;-82
2023/08/19 09:39:34;;;;;;;4.90;3.30;;;30.60;99.90;;;;;;7390698;19;20149;-82
2023/08/19 09:42:00;;;;;;;8.93;3.50;;;30.60;99.90;;;;;;7392501;19;20666;-82
2023/08/19 09:44:30;;;;;;;7.85;3.88;;;30.70;99.90;;;;;;7391887;19;20155;-81
2023/08/19 09:46:56;;;;;;;6.78;3.65;;;30.70;99.90;;;;;;7390579;19;20603;-81
2023/08/19 09:49:23;;;;;;;6.38;3.10;;;30.70;99.90;;;;;;7390286;19;20210;-83
2023/08/19 09:51:56;;;;;;;5.10;2.80;;;30.70;99.90;;;;;;7391362;19;20495;-83
2023/08/19 09:54:22;;;;;;;5.35;2.97;;;30.90;99.90;;;;;;7390073;19;20146;-81
2023/08/19 09:56:56;;;;;;;6.80;3.55;;;31.10;99.90;;;;;;7391858;19;20141;-83
2023/08/19 09:59:25;;;;;;;8.18;4.55;;;31.20;99.90;;;;;;7391110;19;20165;-83
2023/08/19 10:01:52;;;;;;;6.07;3.25;;;31.20;99.90;;;;;;7389885;19;20174;-82
2023/08/19 10:04:19;;;;;;;5.20;3.25;;;31.00;99.90;;;;;;7388642;19;20154;-82
2023/08/19 10:06:48;;;;;;;7.15;3.25;;;30.90;99.90;;;;;;7391272;19;20150;-84
2023/08/19 10:09:18;;;;;;;6.10;3.53;;;30.90;99.90;;;;;;7388797;19;20142;-81
2023/08/19 10:11:45;;;;;;;7.72;3.30;;;30.90;99.90;;;;;;7389876;19;20130;-83
2023/08/19 10:14:12;;;;;;;4.15;2.50;;;30.90;99.90;;;;;;7390126;19;20138;-81
2023/08/19 10:16:46;;;;;;;7.15;4.50;;;31.00;99.90;;;;;;7392764;19;20237;-82
2023/08/19 10:19:17;;;;;;;7.38;3.10;;;31.20;99.90;;;;;;7390351;19;20813;-84
2023/08/19 10:21:46;;;;;;;3.97;3.00;;;31.40;99.90;;;;;;7391953;19;20461;-82
2023/08/19 10:24:12;;;;;;;4.00;2.40;;;31.70;99.90;;;;;;7392373;19;20256;-83
2023/08/19 10:26:38;;;;;;;4.70;3.20;;;31.90;99.90;;;;;;7390521;19;20157;-82
2023/08/19 10:29:06;;;;;;;4.70;2.88;;;31.90;99.90;;;;;;7388462;19;20491;-82
2023/08/19 10:31:32;;;;;;;5.50;2.90;;;31.80;99.90;;;;;;7392383;19;20206;-82
2023/08/19 10:33:58;;;;;;;9.52;3.33;;;31.80;99.90;;;;;;7391460;19;20139;-83
2023/08/19 10:36:32;;;;;;;3.05;2.60;;;31.80;99.90;;;;;;7388158;19;20143;-82
2023/08/19 10:39:05;;;;;;;4.00;2.35;;;31.80;99.90;;;;;;7389712;19;20136;-83
2023/08/19 10:41:37;;;;;;;6.25;2.65;;;31.80;99.90;;;;;;7390762;19;20155;-84
2023/08/19 10:44:11;;;;;;;5.70;2.53;;;31.80;99.90;;;;;;7389893;19;20149;-83
2023/08/19 10:46:37;;;;;;;3.95;2.63;;;31.80;99.90;;;;;;7390514;19;20246;-81
2023/08/19 10:49:05;;;;;;;5.00;3.53;;;31.80;99.90;;;;;;7387034;19;20143;-83
2023/08/19 10:52:00;;;;;;;6.93;3.13;;;31.80;99.90;;;;;;7390114;19;20151;-83
2023/08/19 10:54:43;;;;;;;3.45;2.67;;;31.90;99.90;;;;;;7390269;19;20161;-81
2023/08/19 10:57:23;;;;;;;4.50;3.20;;;31.90;99.60;;;;;;7389241;19;20154;-82
2023/08/19 11:00:07;;;;;;;5.20;2.55;;;31.90;99.10;;;;;;7390247;19;20135;-83
2023/08/19 11:02:33;;;;;;;7.38;3.20;;;32.00;99.20;;;;;;7390611;19;20220;-83
2023/08/19 11:05:03;;;;;;;6.13;3.60;;;32.00;99.40;;;;;;7386875;19;20154;-82
2023/08/19 11:07:33;;;;;;;4.53;2.67;;;32.00;98.80;;;;;;7391927;19;20165;-83
2023/08/19 11:09:59;;;;;;;5.47;3.08;;;32.10;97.20;;;;;;7386524;19;20497;-84
2023/08/19 11:12:26;;;;;;;5.30;4.28;;;32.20;97.50;;;;;;7389590;19;20158;-83
2023/08/19 11:14:56;;;;;;;4.55;3.33;;;32.20;96.60;;;;;;7388571;19;20142;-83
2023/08/19 11:17:34;;;;;;;6.60;3.30;;;32.20;96.00;;;;;;7388400;19;20142;-83
2023/08/19 11:20:09;;;;;;;4.72;2.47;;;32.20;96.20;;;;;;7389245;19;20233;-83
2023/08/19 11:22:49;;;;;;;6.03;2.90;;;32.10;94.80;;;;;;7389839;19;20145;-82
2023/08/19 11:25:15;;;;;;;5.25;2.38;;;32.20;94.80;;;;;;7389325;19;20142;-83
2023/08/19 11:27:42;;;;;;;4.78;3.03;;;32.20;94.10;;;;;;7390119;19;20154;-83
2023/08/19 11:30:12;;;;;;;3.58;2.60;;;32.30;94.40;;;;;;7383445;19;20158;-82
2023/08/19 11:32:38;;;;;;;4.07;2.90;;;32.30;93.40;;;;;;7385156;19;20159;-83
2023/08/19 11:35:04;;;;;;;4.25;1.98;;;32.40;93.50;;;;;;7381606;19;20142;-80
2023/08/19 11:37:30;;;;;;;4.20;2.58;;;32.60;93.50;;;;;;7387435;19;20156;-77
2023/08/19 11:39:57;;;;;;;3.67;2.72;;;32.90;91.70;;;;;;7384878;19;20445;-79
2023/08/19 11:42:27;;;;;;;4.22;2.67;;;33.00;91.90;;;;;;7389369;19;20162;-81
2023/08/19 11:44:55;;;;;;;4.30;2.45;;;33.00;91.90;;;;;;7381012;19;20165;-83
2023/08/19 11:47:21;;;;;;;4.05;2.15;;;33.10;91.00;;;;;;7382054;19;20134;-81
2023/08/19 11:49:47;;;;;;;4.47;2.47;;;33.10;90.80;;;;;;7380828;19;20145;-80
2023/08/19 11:52:20;;;;;;;6.95;2.13;;;33.20;91.30;;;;;;7394566;19;20143;-81
2023/08/19 11:55:03;;;;;;;4.22;2.60;;;33.30;91.50;;;;;;7392060;19;20493;-78
2023/08/19 11:57:34;;;;;;;7.72;2.13;;;33.40;91.00;;;;;;7392351;19;20150;-79
2023/08/19 12:00:00;;;;;;;6.50;2.90;;;33.60;90.20;;;;;;7392141;19;20154;-80
2023/08/19 12:02:27;;;;;;;5.28;2.50;;;33.50;91.20;;;;;;7391875;19;20165;-79
2023/08/19 12:04:56;;;;;;;2.92;2.60;;;33.50;90.40;;;;;;7390472;19;20195;-79
2023/08/19 12:07:29;;;;;;;5.50;2.70;;;33.50;90.20;;;;;;7390413;19;20158;-79
2023/08/19 12:09:59;;;;;;;4.43;2.72;;;33.40;90.40;;;;;;7390953;19;20157;-79
2023/08/19 12:12:25;;;;;;;3.42;2.85;;;33.30;90.20;;;;;;7390533;19;20138;-80
2023/08/19 12:14:51;;;;;;;11.43;3.25;;;33.20;91.00;;;;;;7392976;19;20153;-78
2023/08/19 12:17:17;;;;;;;7.57;3.10;;;33.20;90.60;;;;;;7388362;19;20182;-80
2023/08/19 12:19:45;;;;;;;5.90;3.17;;;33.30;90.00;;;;;;7391286;19;20158;-80
2023/08/19 12:22:11;;;;;;;4.53;2.70;;;33.40;90.60;;;;;;7391934;19;20222;-80
2023/08/19 12:24:37;;;;;;;5.40;2.72;;;33.60;90.80;;;;;;7392232;19;20150;-81
2023/08/19 12:27:03;;;;;;;4.63;2.40;;;33.90;90.60;;;;;;7391574;19;20607;-78
2023/08/19 12:29:29;;;;;;;7.00;2.88;;;34.00;90.10;;;;;;7380942;19;20594;-79
2023/08/19 12:31:55;;;;;;;6.30;2.78;;;34.20;88.10;;;;;;7392505;19;20155;-79
2023/08/19 12:34:20;;;;;;;3.85;3.17;;;34.10;87.60;;;;;;7393796;19;20139;-81
2023/08/19 12:36:46;;;;;;;4.68;2.58;;;34.10;88.40;;;;;;7392319;19;20158;-80
2023/08/19 12:39:12;;;;;;;4.40;2.38;;;34.00;87.50;;;;;;7388477;19;20143;-79
2023/08/19 12:41:39;;;;;;;4.55;2.60;;;33.80;87.80;;;;;;7386659;19;20159;-80
2023/08/19 12:44:05;;;;;;;5.65;3.00;;;33.70;87.90;;;;;;7385613;19;20142;-80
2023/08/19 12:46:41;;;;;;;2.97;2.53;;;33.70;89.00;;;;;;7389320;19;20138;-81